| time (UTC) | temp C | wind direction | speed KPH | gust KPH | rain 1hr cm | rain 24hr cm | rain mn cm | humidity % | barometer mb |
| 20260509161546 | 30 | 37 | 1.6 | 6.4 | 0.00 | 0.00 | 0.00 | 62 | 1011.7 |
| 20260509160029 | 28 | 128 | 1.6 | 4.8 | 0.00 | 0.00 | 0.00 | 62 | 1011.9 |
| 20260509154523 | 28 | 53 | 3.2 | 8.0 | 0.00 | 0.00 | 0.00 | 70 | 1011.9 |
| 20260509153023 | 27 | 343 | 3.2 | 6.4 | 0.00 | 0.00 | 0.00 | 73 | 1011.9 |
| 20260509151533 | 27 | 349 | 1.6 | 8.0 | 0.00 | 0.00 | 0.00 | 77 | 1011.9 |
| 20260509150024 | 26 | 69 | 4.8 | 8.0 | 0.00 | 0.00 | 0.00 | 78 | 1011.7 |
| 20260509144537 | 25 | 70 | 1.6 | 9.7 | 0.00 | 0.00 | 0.00 | 82 | 1011.7 |
| 20260509143034 | 25 | 335 | 3.2 | 8.0 | 0.00 | 0.00 | 0.00 | 81 | 1011.7 |
| 20260509141531 | 24 | 37 | 3.2 | 12.9 | 0.00 | 0.00 | 0.00 | 84 | 1011.6 |
| 20260509140027 | 23 | 354 | 3.2 | 9.7 | 0.00 | 0.00 | 0.00 | 87 | 1011.7 |
| 20260509134545 | 23 | 343 | 1.6 | 8.0 | 0.00 | 0.00 | 0.00 | 88 | 1011.8 |
| 20260509133058 | 23 | 26 | 1.6 | 9.7 | 0.00 | 0.00 | 0.00 | 89 | 1011.4 |
| 20260509131554 | 22 | 68 | 0.0 | 3.2 | 0.00 | 0.00 | 0.00 | 94 | 1010.8 |
| 20260509130029 | 21 | 113 | 0.0 | 3.2 | 0.00 | 0.00 | 0.00 | 96 | 1010.8 |
| 20260509124547 | 21 | 155 | 3.2 | 9.7 | 0.00 | 0.00 | 0.00 | 96 | 1010.5 |
| 20260509123036 | 21 | 326 | 3.2 | 14.5 | 0.00 | 0.00 | 0.00 | 97 | 1010.2 |
| 20260509121534 | 21 | 129 | 4.8 | 14.5 | 0.00 | 0.00 | 0.00 | 97 | 1008.8 |
| 20260509120028 | 20 | 202 | 6.4 | 12.9 | 0.00 | 0.00 | 0.00 | 97 | 1008.6 |
| 20260509114542 | 20 | 170 | 6.4 | 11.3 | 0.00 | 0.00 | 0.00 | 97 | 1009.0 |
| 20260509113044 | 20 | 183 | 4.8 | 12.9 | 0.00 | 0.00 | 0.00 | 97 | 1009.7 |
| 20260509111529 | 20 | 143 | 3.2 | 9.7 | 0.00 | 0.00 | 0.00 | 97 | 1010.3 |
| 20260509110049 | 20 | 170 | 4.8 | 11.3 | 0.00 | 0.00 | 0.00 | 98 | 1010.0 |
| 20260509104605 | 20 | 160 | 6.4 | 11.3 | 0.00 | 0.00 | 0.00 | 98 | 1010.4 |
| 20260509103041 | 20 | 146 | 6.4 | 11.3 | 0.00 | 0.00 | 0.00 | 97 | 1010.6 |
| 20260509101536 | 20 | 158 | 1.6 | 4.8 | 0.00 | 0.00 | 0.00 | 98 | 1011.1 |
| 20260509100025 | 20 | 167 | 1.6 | 3.2 | 0.00 | 0.00 | 0.00 | 98 | 1011.5 |
| 20260509094543 | 20 | 195 | 0.0 | 0.0 | 0.00 | 0.00 | 0.00 | 98 | 1011.7 |
| 20260509093035 | 20 | 195 | 0.0 | 0.0 | 0.00 | 0.00 | 0.00 | 97 | 1011.6 |
| 20260509091532 | 20 | 195 | 0.0 | 1.6 | 0.00 | 0.00 | 0.00 | 97 | 1011.7 |
| 20260509090029 | 19 | 195 | 0.0 | 0.0 | 0.00 | 0.00 | 0.00 | 97 | 1011.8 |
| 20260509084526 | 20 | 195 | 0.0 | 0.0 | 0.00 | 0.00 | 0.00 | 97 | 1011.7 |
| 20260509083043 | 20 | 319 | 0.0 | 3.2 | 0.00 | 0.00 | 0.00 | 98 | 1012.2 |
| 20260509081540 | 18 | 208 | 0.0 | 1.6 | 0.00 | 0.00 | 0.00 | 98 | 1012.5 |
| 20260509080027 | 18 | 201 | 0.0 | 0.0 | 0.00 | 0.00 | 0.00 | 97 | 1012.4 |
| 20260509074546 | 18 | 200 | 0.0 | 0.0 | 0.00 | 0.00 | 0.00 | 96 | 1011.8 |
| 20260509073041 | 18 | 201 | 0.0 | 0.0 | 0.00 | 0.00 | 0.00 | 97 | 1011.7 |
| 20260509071531 | 19 | 201 | 0.0 | 0.0 | 0.00 | 0.00 | 0.00 | 97 | 1011.7 |
| 20260509070044 | 19 | 204 | 1.6 | 3.2 | 0.00 | 0.00 | 0.00 | 97 | 1011.8 |
| 20260509064542 | 19 | 209 | 0.0 | 0.0 | 0.00 | 0.00 | 0.00 | 97 | 1012.0 |
| 20260509063026 | 18 | 209 | 0.0 | 0.0 | 0.00 | 0.00 | 0.00 | 97 | 1011.8 |
| 20260509061547 | 18 | 209 | 0.0 | 0.0 | 0.00 | 0.00 | 0.00 | 97 | 1011.3 |
| 20260509060044 | 18 | 209 | 0.0 | 0.0 | 0.00 | 0.00 | 0.00 | 96 | 1011.0 |
| 20260509054530 | 18 | 209 | 0.0 | 0.0 | 0.00 | 0.00 | 0.00 | 96 | 1010.8 |
| 20260509053029 | 18 | 209 | 0.0 | 0.0 | 0.00 | 0.00 | 0.00 | 96 | 1010.8 |
| 20260509051549 | 19 | 209 | 0.0 | 0.0 | 0.00 | 0.00 | 0.00 | 96 | 1011.2 |
| 20260509050036 | 19 | 209 | 0.0 | 0.0 | 0.00 | 0.00 | 0.00 | 96 | 1011.4 |
| 20260509044531 | 19 | 209 | 0.0 | 0.0 | 0.00 | 0.00 | 0.00 | 96 | 1011.3 |
| 20260509043025 | 18 | 209 | 0.0 | 0.0 | 0.00 | 0.00 | 0.00 | 96 | 1011.3 |
| 20260509041524 | 18 | 209 | 0.0 | 0.0 | 0.00 | 0.00 | 0.00 | 96 | 1011.3 |
| 20260509040040 | 18 | 209 | 0.0 | 0.0 | 0.00 | 0.03 | 0.00 | 96 | 1011.2 |
| 20260509034534 | 18 | 209 | 0.0 | 0.0 | 0.00 | 0.03 | 0.00 | 95 | 1010.6 |
| 20260509033034 | 19 | 209 | 0.0 | 0.0 | 0.00 | 0.03 | 0.00 | 95 | 1010.3 |
| 20260509031544 | 19 | 209 | 0.0 | 0.0 | 0.00 | 0.03 | 0.00 | 94 | 1010.3 |
| 20260509030041 | 20 | 209 | 0.0 | 0.0 | 0.00 | 0.03 | 0.00 | 94 | 1010.0 |
| 20260509024527 | 20 | 209 | 0.0 | 1.6 | 0.00 | 0.03 | 0.00 | 93 | 1009.8 |
| 20260509023047 | 20 | 209 | 0.0 | 0.0 | 0.00 | 0.03 | 0.00 | 92 | 1009.7 |
| 20260509021544 | 21 | 209 | 0.0 | 0.0 | 0.00 | 0.03 | 0.00 | 91 | 1009.7 |
| 20260509020056 | 21 | 208 | 0.0 | 0.0 | 0.00 | 0.03 | 0.00 | 90 | 1009.3 |
| 20260509014553 | 22 | 209 | 0.0 | 0.0 | 0.00 | 0.03 | 0.00 | 90 | 1009.2 |
| 20260509013030 | 22 | 208 | 0.0 | 0.0 | 0.00 | 0.03 | 0.00 | 89 | 1009.4 |
| 20260509011523 | 22 | 209 | 0.0 | 0.0 | 0.00 | 0.03 | 0.00 | 88 | 1009.5 |
| 20260509010059 | 22 | 209 | 0.0 | 1.6 | 0.00 | 0.03 | 0.00 | 87 | 1009.5 |
| 20260509004535 | 23 | 200 | 0.0 | 1.6 | 0.00 | 0.03 | 0.00 | 87 | 1009.6 |
| 20260509003031 | 23 | 203 | 0.0 | 1.6 | 0.00 | 0.03 | 0.00 | 87 | 1009.6 |
| 20260509001523 | 23 | 194 | 0.0 | 4.8 | 0.00 | 0.03 | 0.00 | 86 | 1009.5 |
| 20260509000037 | 23 | 245 | 4.8 | 9.7 | 0.00 | 0.03 | 0.00 | 85 | 1009.5 |
| 20260508234553 | 23 | 214 | 4.8 | 8.0 | 0.00 | 0.03 | 0.00 | 85 | 1009.5 |
| 20260508233101 | 23 | 216 | 4.8 | 9.7 | 0.00 | 0.03 | 0.00 | 85 | 1009.6 |
| 20260508231527 | 23 | 209 | 4.8 | 9.7 | 0.00 | 0.03 | 0.00 | 84 | 1009.4 |
| 20260508230032 | 23 | 181 | 3.2 | 8.0 | 0.00 | 0.03 | 0.00 | 84 | 1009.4 |
| 20260508224531 | 23 | 202 | 3.2 | 9.7 | 0.00 | 0.03 | 0.00 | 83 | 1009.6 |
| 20260508223042 | 23 | 175 | 1.6 | 6.4 | 0.00 | 0.03 | 0.00 | 83 | 1009.7 |
| 20260508221547 | 23 | 214 | 1.6 | 8.0 | 0.00 | 0.03 | 0.00 | 82 | 1009.7 |
| 20260508220059 | 23 | 162 | 3.2 | 9.7 | 0.00 | 0.03 | 0.00 | 84 | 1010.0 |
| 20260508214525 | 23 | 210 | 0.0 | 4.8 | 0.00 | 0.03 | 0.00 | 83 | 1010.5 |
| 20260508213046 | 23 | 236 | 1.6 | 6.4 | 0.00 | 0.03 | 0.00 | 82 | 1010.5 |
| 20260508211543 | 23 | 281 | 1.6 | 9.7 | 0.00 | 0.03 | 0.00 | 83 | 1010.6 |
| 20260508210028 | 22 | 195 | 0.0 | 3.2 | 0.00 | 0.03 | 0.00 | 83 | 1011.2 |
| 20260508204548 | 22 | 212 | 0.0 | 3.2 | 0.00 | 0.03 | 0.00 | 83 | 1011.5 |
| 20260508203044 | 22 | 216 | 0.0 | 3.2 | 0.00 | 0.03 | 0.00 | 83 | 1011.7 |
| 20260508201533 | 22 | 159 | 3.2 | 8.0 | 0.00 | 0.03 | 0.00 | 83 | 1011.8 |
| 20260508200027 | 22 | 193 | 0.0 | 6.4 | 0.00 | 0.03 | 0.00 | 83 | 1011.9 |
| 20260508194531 | 22 | 18 | 0.0 | 3.2 | 0.00 | 0.03 | 0.00 | 82 | 1012.0 |
| 20260508193024 | 22 | 349 | 1.6 | 8.0 | 0.00 | 0.03 | 0.00 | 83 | 1012.1 |
| 20260508191540 | 21 | 232 | 0.0 | 4.8 | 0.00 | 0.03 | 0.00 | 83 | 1012.3 |
| 20260508190036 | 21 | 304 | 0.0 | 3.2 | 0.00 | 0.03 | 0.00 | 83 | 1012.6 |
| 20260508184553 | 21 | 130 | 1.6 | 6.4 | 0.00 | 0.03 | 0.00 | 83 | 1012.7 |
| 20260508183030 | 21 | 20 | 0.0 | 6.4 | 0.00 | 0.03 | 0.00 | 83 | 1012.9 |
| 20260508181522 | 20 | 330 | 0.0 | 4.8 | 0.00 | 0.03 | 0.00 | 85 | 1013.1 |
| 20260508180039 | 20 | 98 | 0.0 | 1.6 | 0.00 | 0.03 | 0.00 | 84 | 1013.6 |
| 20260508174537 | 20 | 316 | 1.6 | 3.2 | 0.00 | 0.03 | 0.00 | 84 | 1013.9 |
| 20260508173032 | 20 | 345 | 1.6 | 3.2 | 0.00 | 0.03 | 0.00 | 83 | 1014.0 |
| 20260508171539 | 20 | 192 | 0.0 | 4.8 | 0.00 | 0.03 | 0.00 | 83 | 1014.2 |
| 20260508170036 | 20 | 105 | 0.0 | 3.2 | 0.00 | 0.03 | 0.00 | 83 | 1014.5 |
| 20260508164532 | 20 | 37 | 0.0 | 0.0 | 0.00 | 0.03 | 0.00 | 83 | 1014.5 |
| 20260508163029 | 19 | 340 | 0.0 | 1.6 | 0.00 | 0.03 | 0.00 | 82 | 1014.7 |